sensor_id;sensor_type;location;lat;lon;timestamp;P1;durP1;ratioP1;P2;durP2;ratioP2
8550;SDS011;4313;42.000;21.380;2023-07-30T00:00:38;6.43;;;4.35;;
8550;SDS011;4313;42.000;21.380;2023-07-30T00:03:05;6.10;;;3.88;;
8550;SDS011;4313;42.000;21.380;2023-07-30T00:05:32;5.10;;;4.25;;
8550;SDS011;4313;42.000;21.380;2023-07-30T00:07:59;6.88;;;4.20;;
8550;SDS011;4313;42.000;21.380;2023-07-30T00:10:26;7.88;;;4.40;;
8550;SDS011;4313;42.000;21.380;2023-07-30T00:12:56;5.57;;;4.22;;
8550;SDS011;4313;42.000;21.380;2023-07-30T00:15:24;7.28;;;4.47;;
8550;SDS011;4313;42.000;21.380;2023-07-30T00:17:51;5.68;;;4.43;;
8550;SDS011;4313;42.000;21.380;2023-07-30T00:20:19;6.53;;;4.50;;
8550;SDS011;4313;42.000;21.380;2023-07-30T00:22:46;5.00;;;4.50;;
8550;SDS011;4313;42.000;21.380;2023-07-30T00:25:13;6.38;;;4.53;;
8550;SDS011;4313;42.000;21.380;2023-07-30T00:27:40;5.18;;;3.90;;
8550;SDS011;4313;42.000;21.380;2023-07-30T00:30:09;6.00;;;4.40;;
8550;SDS011;4313;42.000;21.380;2023-07-30T00:32:38;4.68;;;4.13;;
8550;SDS011;4313;42.000;21.380;2023-07-30T00:35:09;7.20;;;4.70;;
8550;SDS011;4313;42.000;21.380;2023-07-30T00:37:36;5.72;;;4.00;;
8550;SDS011;4313;42.000;21.380;2023-07-30T00:40:04;6.78;;;4.60;;
8550;SDS011;4313;42.000;21.380;2023-07-30T00:42:32;5.53;;;4.18;;
8550;SDS011;4313;42.000;21.380;2023-07-30T00:44:59;6.35;;;4.43;;
8550;SDS011;4313;42.000;21.380;2023-07-30T00:47:26;6.57;;;4.35;;
8550;SDS011;4313;42.000;21.380;2023-07-30T00:49:55;5.32;;;4.10;;
8550;SDS011;4313;42.000;21.380;2023-07-30T00:52:22;5.47;;;4.15;;
8550;SDS011;4313;42.000;21.380;2023-07-30T00:54:50;6.72;;;4.18;;
8550;SDS011;4313;42.000;21.380;2023-07-30T00:57:18;5.30;;;4.53;;
8550;SDS011;4313;42.000;21.380;2023-07-30T00:59:46;7.13;;;4.43;;
8550;SDS011;4313;42.000;21.380;2023-07-30T01:02:13;7.18;;;4.07;;
8550;SDS011;4313;42.000;21.380;2023-07-30T01:04:40;4.82;;;4.32;;
8550;SDS011;4313;42.000;21.380;2023-07-30T01:07:09;5.68;;;4.32;;
8550;SDS011;4313;42.000;21.380;2023-07-30T01:09:36;5.20;;;3.80;;
8550;SDS011;4313;42.000;21.380;2023-07-30T01:12:04;4.93;;;4.30;;
8550;SDS011;4313;42.000;21.380;2023-07-30T01:14:32;6.95;;;4.57;;
8550;SDS011;4313;42.000;21.380;2023-07-30T01:16:59;5.00;;;4.50;;
8550;SDS011;4313;42.000;21.380;2023-07-30T01:19:27;6.70;;;4.63;;
8550;SDS011;4313;42.000;21.380;2023-07-30T01:21:57;6.50;;;4.15;;
8550;SDS011;4313;42.000;21.380;2023-07-30T01:24:24;5.15;;;4.50;;
8550;SDS011;4313;42.000;21.380;2023-07-30T01:26:55;5.72;;;4.25;;
8550;SDS011;4313;42.000;21.380;2023-07-30T01:29:27;5.05;;;4.05;;
8550;SDS011;4313;42.000;21.380;2023-07-30T01:31:57;5.13;;;4.55;;
8550;SDS011;4313;42.000;21.380;2023-07-30T01:34:28;5.53;;;4.45;;
8550;SDS011;4313;42.000;21.380;2023-07-30T01:36:57;5.65;;;4.75;;
8550;SDS011;4313;42.000;21.380;2023-07-30T01:39:24;5.47;;;4.60;;
8550;SDS011;4313;42.000;21.380;2023-07-30T01:41:52;5.55;;;4.47;;
8550;SDS011;4313;42.000;21.380;2023-07-30T01:44:20;5.38;;;4.35;;
8550;SDS011;4313;42.000;21.380;2023-07-30T01:46:47;5.60;;;4.20;;
8550;SDS011;4313;42.000;21.380;2023-07-30T01:49:14;4.97;;;3.95;;
8550;SDS011;4313;42.000;21.380;2023-07-30T01:51:41;5.68;;;4.25;;
8550;SDS011;4313;42.000;21.380;2023-07-30T01:54:10;4.85;;;4.25;;
8550;SDS011;4313;42.000;21.380;2023-07-30T01:56:37;6.90;;;4.75;;
8550;SDS011;4313;42.000;21.380;2023-07-30T01:59:04;4.68;;;3.90;;
8550;SDS011;4313;42.000;21.380;2023-07-30T02:01:31;4.53;;;4.05;;
8550;SDS011;4313;42.000;21.380;2023-07-30T02:03:58;6.65;;;4.10;;
8550;SDS011;4313;42.000;21.380;2023-07-30T02:06:25;6.20;;;4.18;;
8550;SDS011;4313;42.000;21.380;2023-07-30T02:08:52;5.18;;;4.25;;
8550;SDS011;4313;42.000;21.380;2023-07-30T02:11:21;6.68;;;4.50;;
8550;SDS011;4313;42.000;21.380;2023-07-30T02:13:48;6.72;;;4.65;;
8550;SDS011;4313;42.000;21.380;2023-07-30T02:16:15;3.78;;;3.42;;
8550;SDS011;4313;42.000;21.380;2023-07-30T02:18:42;5.90;;;4.50;;
8550;SDS011;4313;42.000;21.380;2023-07-30T02:21:09;5.13;;;4.07;;
8550;SDS011;4313;42.000;21.380;2023-07-30T02:23:36;5.47;;;4.43;;
8550;SDS011;4313;42.000;21.380;2023-07-30T02:26:03;5.93;;;4.03;;
8550;SDS011;4313;42.000;21.380;2023-07-30T02:28:32;5.38;;;4.40;;
8550;SDS011;4313;42.000;21.380;2023-07-30T02:30:59;7.30;;;4.40;;
8550;SDS011;4313;42.000;21.380;2023-07-30T02:33:27;5.20;;;4.10;;
8550;SDS011;4313;42.000;21.380;2023-07-30T02:35:54;6.32;;;4.10;;
8550;SDS011;4313;42.000;21.380;2023-07-30T02:38:21;5.78;;;4.32;;
8550;SDS011;4313;42.000;21.380;2023-07-30T02:40:48;6.32;;;4.30;;
8550;SDS011;4313;42.000;21.380;2023-07-30T02:43:15;5.45;;;4.50;;
8550;SDS011;4313;42.000;21.380;2023-07-30T02:45:44;6.60;;;4.68;;
8550;SDS011;4313;42.000;21.380;2023-07-30T02:48:14;4.07;;;3.67;;
8550;SDS011;4313;42.000;21.380;2023-07-30T02:50:42;4.75;;;4.28;;
8550;SDS011;4313;42.000;21.380;2023-07-30T02:53:09;5.30;;;4.10;;
8550;SDS011;4313;42.000;21.380;2023-07-30T02:55:36;4.88;;;4.10;;
8550;SDS011;4313;42.000;21.380;2023-07-30T02:58:03;4.80;;;4.00;;
8550;SDS011;4313;42.000;21.380;2023-07-30T03:00:30;5.78;;;4.45;;
8550;SDS011;4313;42.000;21.380;2023-07-30T03:02:59;5.15;;;4.55;;
8550;SDS011;4313;42.000;21.380;2023-07-30T03:05:26;5.38;;;4.30;;
8550;SDS011;4313;42.000;21.380;2023-07-30T03:07:53;4.63;;;4.15;;
8550;SDS011;4313;42.000;21.380;2023-07-30T03:10:20;6.10;;;4.43;;
8550;SDS011;4313;42.000;21.380;2023-07-30T03:12:47;5.05;;;4.32;;
8550;SDS011;4313;42.000;21.380;2023-07-30T03:15:14;4.95;;;4.45;;
8550;SDS011;4313;42.000;21.380;2023-07-30T03:17:41;6.78;;;4.60;;
8550;SDS011;4313;42.000;21.380;2023-07-30T03:20:10;6.20;;;4.28;;
8550;SDS011;4313;42.000;21.380;2023-07-30T03:22:38;6.55;;;4.65;;
8550;SDS011;4313;42.000;21.380;2023-07-30T03:25:05;5.38;;;4.30;;
8550;SDS011;4313;42.000;21.380;2023-07-30T03:27:32;4.78;;;4.30;;
8550;SDS011;4313;42.000;21.380;2023-07-30T03:29:59;6.05;;;4.45;;
8550;SDS011;4313;42.000;21.380;2023-07-30T03:32:27;6.20;;;4.80;;
8550;SDS011;4313;42.000;21.380;2023-07-30T03:34:54;7.65;;;4.68;;
8550;SDS011;4313;42.000;21.380;2023-07-30T03:37:22;5.35;;;4.22;;
8550;SDS011;4313;42.000;21.380;2023-07-30T03:39:49;7.93;;;4.50;;
8550;SDS011;4313;42.000;21.380;2023-07-30T03:42:16;6.32;;;4.88;;
8550;SDS011;4313;42.000;21.380;2023-07-30T03:44:43;7.82;;;4.55;;
8550;SDS011;4313;42.000;21.380;2023-07-30T03:47:10;7.20;;;4.60;;
8550;SDS011;4313;42.000;21.380;2023-07-30T03:49:37;5.95;;;4.97;;
8550;SDS011;4313;42.000;21.380;2023-07-30T03:52:05;6.47;;;4.82;;
8550;SDS011;4313;42.000;21.380;2023-07-30T03:54:35;5.25;;;4.53;;
8550;SDS011;4313;42.000;21.380;2023-07-30T03:57:02;8.30;;;5.05;;
8550;SDS011;4313;42.000;21.380;2023-07-30T03:59:29;5.75;;;4.20;;
8550;SDS011;4313;42.000;21.380;2023-07-30T04:01:57;7.00;;;4.60;;
8550;SDS011;4313;42.000;21.380;2023-07-30T04:04:24;5.63;;;4.80;;
8550;SDS011;4313;42.000;21.380;2023-07-30T04:06:52;5.38;;;4.50;;
8550;SDS011;4313;42.000;21.380;2023-07-30T04:09:19;6.18;;;4.95;;
8550;SDS011;4313;42.000;21.380;2023-07-30T04:11:48;7.05;;;4.25;;
8550;SDS011;4313;42.000;21.380;2023-07-30T04:14:16;9.40;;;5.32;;
8550;SDS011;4313;42.000;21.380;2023-07-30T04:16:43;7.95;;;4.90;;
8550;SDS011;4313;42.000;21.380;2023-07-30T04:19:13;5.65;;;4.53;;
8550;SDS011;4313;42.000;21.380;2023-07-30T04:21:40;6.95;;;4.93;;
8550;SDS011;4313;42.000;21.380;2023-07-30T04:24:07;9.13;;;6.75;;
8550;SDS011;4313;42.000;21.380;2023-07-30T04:26:34;5.97;;;4.72;;
8550;SDS011;4313;42.000;21.380;2023-07-30T04:29:03;7.85;;;4.82;;
8550;SDS011;4313;42.000;21.380;2023-07-30T04:31:31;8.15;;;5.47;;
8550;SDS011;4313;42.000;21.380;2023-07-30T04:33:58;8.00;;;5.40;;
8550;SDS011;4313;42.000;21.380;2023-07-30T04:36:25;6.53;;;5.13;;
8550;SDS011;4313;42.000;21.380;2023-07-30T04:38:53;7.35;;;5.45;;
8550;SDS011;4313;42.000;21.380;2023-07-30T04:41:27;6.53;;;5.00;;
8550;SDS011;4313;42.000;21.380;2023-07-30T04:43:56;5.50;;;4.70;;
8550;SDS011;4313;42.000;21.380;2023-07-30T04:46:29;6.55;;;5.03;;
8550;SDS011;4313;42.000;21.380;2023-07-30T04:48:58;6.95;;;4.60;;
8550;SDS011;4313;42.000;21.380;2023-07-30T04:51:25;6.28;;;4.70;;
8550;SDS011;4313;42.000;21.380;2023-07-30T04:53:52;6.15;;;5.50;;
8550;SDS011;4313;42.000;21.380;2023-07-30T04:56:19;7.28;;;4.82;;
8550;SDS011;4313;42.000;21.380;2023-07-30T04:58:47;6.47;;;4.88;;
8550;SDS011;4313;42.000;21.380;2023-07-30T05:01:14;6.57;;;5.97;;
8550;SDS011;4313;42.000;21.380;2023-07-30T05:03:43;11.23;;;9.63;;
8550;SDS011;4313;42.000;21.380;2023-07-30T05:06:10;10.35;;;7.53;;
8550;SDS011;4313;42.000;21.380;2023-07-30T05:08:37;8.52;;;6.05;;
8550;SDS011;4313;42.000;21.380;2023-07-30T05:11:04;6.93;;;4.85;;
8550;SDS011;4313;42.000;21.380;2023-07-30T05:13:31;7.80;;;4.88;;
8550;SDS011;4313;42.000;21.380;2023-07-30T05:15:59;7.00;;;6.30;;
8550;SDS011;4313;42.000;21.380;2023-07-30T05:18:27;9.95;;;8.57;;
8550;SDS011;4313;42.000;21.380;2023-07-30T05:20:55;9.70;;;8.57;;
8550;SDS011;4313;42.000;21.380;2023-07-30T05:23:22;6.78;;;5.45;;
8550;SDS011;4313;42.000;21.380;2023-07-30T05:25:49;5.53;;;5.03;;
8550;SDS011;4313;42.000;21.380;2023-07-30T05:28:16;7.88;;;5.30;;
8550;SDS011;4313;42.000;21.380;2023-07-30T05:30:43;6.00;;;5.40;;
8550;SDS011;4313;42.000;21.380;2023-07-30T05:33:11;6.47;;;4.30;;
8550;SDS011;4313;42.000;21.380;2023-07-30T05:35:38;9.80;;;4.80;;
8550;SDS011;4313;42.000;21.380;2023-07-30T05:38:06;6.28;;;4.70;;
8550;SDS011;4313;42.000;21.380;2023-07-30T05:40:33;5.38;;;4.70;;
8550;SDS011;4313;42.000;21.380;2023-07-30T05:43:00;5.70;;;4.68;;
8550;SDS011;4313;42.000;21.380;2023-07-30T05:45:28;5.50;;;4.75;;
8550;SDS011;4313;42.000;21.380;2023-07-30T05:47:55;5.13;;;4.53;;
8550;SDS011;4313;42.000;21.380;2023-07-30T05:50:22;5.10;;;4.35;;
8550;SDS011;4313;42.000;21.380;2023-07-30T05:52:49;6.03;;;4.60;;
8550;SDS011;4313;42.000;21.380;2023-07-30T05:55:18;6.22;;;4.60;;
8550;SDS011;4313;42.000;21.380;2023-07-30T05:57:45;7.75;;;5.30;;
8550;SDS011;4313;42.000;21.380;2023-07-30T06:00:12;7.40;;;6.07;;
8550;SDS011;4313;42.000;21.380;2023-07-30T06:02:39;8.48;;;7.57;;
8550;SDS011;4313;42.000;21.380;2023-07-30T06:05:07;10.93;;;7.95;;
8550;SDS011;4313;42.000;21.380;2023-07-30T06:07:34;8.68;;;7.03;;
8550;SDS011;4313;42.000;21.380;2023-07-30T06:10:04;7.95;;;6.47;;
8550;SDS011;4313;42.000;21.380;2023-07-30T06:12:33;7.75;;;6.28;;
8550;SDS011;4313;42.000;21.380;2023-07-30T06:15:00;7.13;;;5.55;;
8550;SDS011;4313;42.000;21.380;2023-07-30T06:17:27;7.03;;;5.60;;
8550;SDS011;4313;42.000;21.380;2023-07-30T06:20:51;5.55;;;5.00;;
8550;SDS011;4313;42.000;21.380;2023-07-30T06:23:18;8.30;;;6.45;;
8550;SDS011;4313;42.000;21.380;2023-07-30T06:25:45;8.88;;;6.85;;
8550;SDS011;4313;42.000;21.380;2023-07-30T06:28:14;8.65;;;7.22;;
8550;SDS011;4313;42.000;21.380;2023-07-30T06:30:41;10.38;;;8.60;;
8550;SDS011;4313;42.000;21.380;2023-07-30T06:33:08;9.18;;;7.75;;
8550;SDS011;4313;42.000;21.380;2023-07-30T06:35:35;9.88;;;7.22;;
8550;SDS011;4313;42.000;21.380;2023-07-30T06:38:02;10.23;;;7.90;;
8550;SDS011;4313;42.000;21.380;2023-07-30T06:40:29;10.00;;;7.13;;
8550;SDS011;4313;42.000;21.380;2023-07-30T06:42:56;8.90;;;6.90;;
8550;SDS011;4313;42.000;21.380;2023-07-30T06:45:24;8.90;;;6.80;;
8550;SDS011;4313;42.000;21.380;2023-07-30T06:47:52;7.10;;;6.05;;
8550;SDS011;4313;42.000;21.380;2023-07-30T06:50:19;9.88;;;6.60;;
8550;SDS011;4313;42.000;21.380;2023-07-30T06:52:46;7.70;;;6.28;;
8550;SDS011;4313;42.000;21.380;2023-07-30T06:55:13;12.15;;;6.43;;
8550;SDS011;4313;42.000;21.380;2023-07-30T06:57:40;6.63;;;5.60;;
8550;SDS011;4313;42.000;21.380;2023-07-30T07:00:07;7.30;;;5.72;;
8550;SDS011;4313;42.000;21.380;2023-07-30T07:02:36;7.05;;;5.72;;
8550;SDS011;4313;42.000;21.380;2023-07-30T07:05:04;7.35;;;5.88;;
8550;SDS011;4313;42.000;21.380;2023-07-30T07:07:31;7.35;;;5.70;;
8550;SDS011;4313;42.000;21.380;2023-07-30T07:09:58;8.93;;;5.00;;
8550;SDS011;4313;42.000;21.380;2023-07-30T07:12:25;7.78;;;4.95;;
8550;SDS011;4313;42.000;21.380;2023-07-30T07:14:52;6.93;;;5.15;;
8550;SDS011;4313;42.000;21.380;2023-07-30T07:17:23;5.32;;;4.80;;
8550;SDS011;4313;42.000;21.380;2023-07-30T07:19:51;8.38;;;7.15;;
8550;SDS011;4313;42.000;21.380;2023-07-30T07:22:18;6.38;;;5.72;;
8550;SDS011;4313;42.000;21.380;2023-07-30T07:24:46;6.60;;;5.20;;
8550;SDS011;4313;42.000;21.380;2023-07-30T07:27:13;6.85;;;5.47;;
8550;SDS011;4313;42.000;21.380;2023-07-30T07:29:42;7.50;;;5.32;;
8550;SDS011;4313;42.000;21.380;2023-07-30T07:32:09;7.53;;;5.38;;
8550;SDS011;4313;42.000;21.380;2023-07-30T07:34:36;8.95;;;5.25;;
8550;SDS011;4313;42.000;21.380;2023-07-30T07:37:05;6.80;;;6.03;;
8550;SDS011;4313;42.000;21.380;2023-07-30T07:39:32;6.28;;;5.03;;
8550;SDS011;4313;42.000;21.380;2023-07-30T07:41:59;8.57;;;5.60;;
8550;SDS011;4313;42.000;21.380;2023-07-30T07:44:26;7.50;;;5.28;;
8550;SDS011;4313;42.000;21.380;2023-07-30T07:46:53;6.53;;;5.22;;
8550;SDS011;4313;42.000;21.380;2023-07-30T07:49:20;7.28;;;4.97;;
8550;SDS011;4313;42.000;21.380;2023-07-30T07:51:48;7.10;;;5.53;;
8550;SDS011;4313;42.000;21.380;2023-07-30T07:54:16;6.80;;;5.38;;
8550;SDS011;4313;42.000;21.380;2023-07-30T07:56:44;7.70;;;5.30;;
8550;SDS011;4313;42.000;21.380;2023-07-30T07:59:11;7.13;;;5.15;;
8550;SDS011;4313;42.000;21.380;2023-07-30T08:01:38;6.15;;;5.07;;
8550;SDS011;4313;42.000;21.380;2023-07-30T08:04:05;7.68;;;5.30;;
8550;SDS011;4313;42.000;21.380;2023-07-30T08:06:32;6.38;;;4.93;;
8550;SDS011;4313;42.000;21.380;2023-07-30T08:09:02;6.65;;;5.32;;
8550;SDS011;4313;42.000;21.380;2023-07-30T08:11:30;6.20;;;4.90;;
8550;SDS011;4313;42.000;21.380;2023-07-30T08:13:58;6.32;;;5.10;;
8550;SDS011;4313;42.000;21.380;2023-07-30T08:16:25;7.25;;;5.30;;
8550;SDS011;4313;42.000;21.380;2023-07-30T08:18:52;6.97;;;5.78;;
8550;SDS011;4313;42.000;21.380;2023-07-30T08:21:20;7.10;;;5.55;;
8550;SDS011;4313;42.000;21.380;2023-07-30T08:23:47;6.25;;;5.07;;
8550;SDS011;4313;42.000;21.380;2023-07-30T08:26:14;6.47;;;5.38;;
8550;SDS011;4313;42.000;21.380;2023-07-30T08:28:43;6.20;;;5.55;;
8550;SDS011;4313;42.000;21.380;2023-07-30T08:31:10;7.85;;;5.40;;
8550;SDS011;4313;42.000;21.380;2023-07-30T08:33:37;8.23;;;5.65;;
8550;SDS011;4313;42.000;21.380;2023-07-30T08:36:04;7.72;;;5.80;;
8550;SDS011;4313;42.000;21.380;2023-07-30T08:38:31;6.85;;;5.30;;
8550;SDS011;4313;42.000;21.380;2023-07-30T08:40:58;7.03;;;5.20;;
8550;SDS011;4313;42.000;21.380;2023-07-30T08:43:26;5.63;;;5.00;;
8550;SDS011;4313;42.000;21.380;2023-07-30T08:45:54;6.70;;;4.88;;
8550;SDS011;4313;42.000;21.380;2023-07-30T08:48:21;7.55;;;5.13;;
8550;SDS011;4313;42.000;21.380;2023-07-30T08:50:48;7.43;;;5.38;;
8550;SDS011;4313;42.000;21.380;2023-07-30T08:53:16;6.75;;;4.60;;
8550;SDS011;4313;42.000;21.380;2023-07-30T08:55:44;6.07;;;4.35;;
8550;SDS011;4313;42.000;21.380;2023-07-30T08:58:12;4.68;;;4.28;;
8550;SDS011;4313;42.000;21.380;2023-07-30T09:00:41;5.47;;;4.38;;
8550;SDS011;4313;42.000;21.380;2023-07-30T09:03:10;5.22;;;4.32;;
8550;SDS011;4313;42.000;21.380;2023-07-30T09:05:39;4.90;;;4.10;;
8550;SDS011;4313;42.000;21.380;2023-07-30T09:08:06;5.32;;;4.10;;
8550;SDS011;4313;42.000;21.380;2023-07-30T09:10:34;5.05;;;4.57;;
8550;SDS011;4313;42.000;21.380;2023-07-30T09:13:03;5.00;;;4.45;;
8550;SDS011;4313;42.000;21.380;2023-07-30T09:15:30;7.75;;;5.00;;
8550;SDS011;4313;42.000;21.380;2023-07-30T09:17:58;5.60;;;4.78;;
8550;SDS011;4313;42.000;21.380;2023-07-30T09:20:27;6.13;;;4.88;;
8550;SDS011;4313;42.000;21.380;2023-07-30T09:22:55;6.00;;;4.97;;
8550;SDS011;4313;42.000;21.380;2023-07-30T09:25:23;4.78;;;4.30;;
8550;SDS011;4313;42.000;21.380;2023-07-30T09:27:50;11.45;;;4.90;;
8550;SDS011;4313;42.000;21.380;2023-07-30T09:30:21;5.47;;;4.35;;
8550;SDS011;4313;42.000;21.380;2023-07-30T09:32:50;5.05;;;4.30;;
8550;SDS011;4313;42.000;21.380;2023-07-30T09:35:18;5.57;;;4.97;;
8550;SDS011;4313;42.000;21.380;2023-07-30T09:37:47;5.22;;;4.72;;
8550;SDS011;4313;42.000;21.380;2023-07-30T09:40:16;5.70;;;4.90;;
8550;SDS011;4313;42.000;21.380;2023-07-30T09:42:45;5.63;;;4.93;;
8550;SDS011;4313;42.000;21.380;2023-07-30T09:45:21;5.57;;;5.05;;
8550;SDS011;4313;42.000;21.380;2023-07-30T09:47:49;6.93;;;5.28;;
8550;SDS011;4313;42.000;21.380;2023-07-30T09:50:17;5.22;;;4.57;;
8550;SDS011;4313;42.000;21.380;2023-07-30T09:52:46;5.82;;;4.78;;
8550;SDS011;4313;42.000;21.380;2023-07-30T09:55:13;5.95;;;4.38;;
8550;SDS011;4313;42.000;21.380;2023-07-30T09:57:41;5.00;;;4.50;;
8550;SDS011;4313;42.000;21.380;2023-07-30T10:00:09;4.82;;;4.30;;
8550;SDS011;4313;42.000;21.380;2023-07-30T10:02:37;6.35;;;4.90;;
8550;SDS011;4313;42.000;21.380;2023-07-30T10:05:07;4.60;;;4.20;;
8550;SDS011;4313;42.000;21.380;2023-07-30T10:07:37;5.25;;;3.95;;
8550;SDS011;4313;42.000;21.380;2023-07-30T10:10:07;6.18;;;4.45;;
8550;SDS011;4313;42.000;21.380;2023-07-30T10:12:36;6.45;;;4.50;;
8550;SDS011;4313;42.000;21.380;2023-07-30T10:15:06;4.90;;;4.20;;
8550;SDS011;4313;42.000;21.380;2023-07-30T10:17:33;7.22;;;4.50;;
8550;SDS011;4313;42.000;21.380;2023-07-30T10:20:21;4.60;;;4.15;;
8550;SDS011;4313;42.000;21.380;2023-07-30T10:22:51;4.45;;;4.05;;
8550;SDS011;4313;42.000;21.380;2023-07-30T10:25:21;5.90;;;5.30;;
8550;SDS011;4313;42.000;21.380;2023-07-30T10:27:50;4.65;;;4.15;;
8550;SDS011;4313;42.000;21.380;2023-07-30T10:30:17;5.97;;;4.18;;
8550;SDS011;4313;42.000;21.380;2023-07-30T10:35:45;4.53;;;3.83;;
8550;SDS011;4313;42.000;21.380;2023-07-30T10:38:17;5.60;;;3.92;;
8550;SDS011;4313;42.000;21.380;2023-07-30T10:41:05;5.70;;;4.28;;
8550;SDS011;4313;42.000;21.380;2023-07-30T10:43:34;4.20;;;3.80;;
8550;SDS011;4313;42.000;21.380;2023-07-30T10:46:01;6.47;;;4.10;;
8550;SDS011;4313;42.000;21.380;2023-07-30T10:48:32;5.35;;;4.00;;
8550;SDS011;4313;42.000;21.380;2023-07-30T10:51:00;5.38;;;4.50;;
8550;SDS011;4313;42.000;21.380;2023-07-30T10:53:31;6.18;;;4.22;;
8550;SDS011;4313;42.000;21.380;2023-07-30T10:55:58;4.50;;;3.72;;
8550;SDS011;4313;42.000;21.380;2023-07-30T10:58:29;4.40;;;4.00;;
8550;SDS011;4313;42.000;21.380;2023-07-30T11:00:56;4.30;;;3.90;;
8550;SDS011;4313;42.000;21.380;2023-07-30T11:03:27;4.47;;;4.07;;
8550;SDS011;4313;42.000;21.380;2023-07-30T11:05:56;5.00;;;4.15;;
8550;SDS011;4313;42.000;21.380;2023-07-30T11:08:31;4.30;;;3.80;;
8550;SDS011;4313;42.000;21.380;2023-07-30T11:10:59;4.30;;;3.63;;
8550;SDS011;4313;42.000;21.380;2023-07-30T11:13:26;3.67;;;3.38;;
8550;SDS011;4313;42.000;21.380;2023-07-30T11:15:55;5.07;;;3.97;;
8550;SDS011;4313;42.000;21.380;2023-07-30T11:18:22;4.57;;;3.83;;
8550;SDS011;4313;42.000;21.380;2023-07-30T11:20:49;4.20;;;3.80;;
8550;SDS011;4313;42.000;21.380;2023-07-30T11:23:22;5.30;;;4.00;;
8550;SDS011;4313;42.000;21.380;2023-07-30T11:25:49;4.72;;;4.13;;
8550;SDS011;4313;42.000;21.380;2023-07-30T11:28:30;4.30;;;3.90;;
8550;SDS011;4313;42.000;21.380;2023-07-30T11:30:58;4.57;;;3.90;;
8550;SDS011;4313;42.000;21.380;2023-07-30T11:33:27;4.70;;;4.05;;
8550;SDS011;4313;42.000;21.380;2023-07-30T11:35:54;6.80;;;6.15;;
8550;SDS011;4313;42.000;21.380;2023-07-30T11:38:22;5.45;;;4.97;;
8550;SDS011;4313;42.000;21.380;2023-07-30T11:40:49;6.95;;;5.78;;
8550;SDS011;4313;42.000;21.380;2023-07-30T11:43:18;5.10;;;4.60;;
8550;SDS011;4313;42.000;21.380;2023-07-30T11:45:47;4.68;;;4.20;;
8550;SDS011;4313;42.000;21.380;2023-07-30T11:48:14;4.70;;;4.20;;
8550;SDS011;4313;42.000;21.380;2023-07-30T11:50:47;6.05;;;4.15;;
8550;SDS011;4313;42.000;21.380;2023-07-30T11:53:15;6.10;;;4.13;;
8550;SDS011;4313;42.000;21.380;2023-07-30T11:55:43;4.57;;;4.18;;
8550;SDS011;4313;42.000;21.380;2023-07-30T11:58:11;4.25;;;3.80;;
8550;SDS011;4313;42.000;21.380;2023-07-30T12:00:39;4.30;;;3.90;;
8550;SDS011;4313;42.000;21.380;2023-07-30T12:03:09;7.00;;;4.78;;
8550;SDS011;4313;42.000;21.380;2023-07-30T12:05:39;4.40;;;3.80;;
8550;SDS011;4313;42.000;21.380;2023-07-30T12:08:07;4.00;;;3.60;;
8550;SDS011;4313;42.000;21.380;2023-07-30T12:10:43;4.00;;;3.70;;
8550;SDS011;4313;42.000;21.380;2023-07-30T12:13:11;4.40;;;3.90;;
8550;SDS011;4313;42.000;21.380;2023-07-30T12:15:38;4.35;;;3.95;;
8550;SDS011;4313;42.000;21.380;2023-07-30T12:18:08;3.80;;;3.50;;
8550;SDS011;4313;42.000;21.380;2023-07-30T12:20:35;5.55;;;4.07;;
8550;SDS011;4313;42.000;21.380;2023-07-30T12:23:03;5.25;;;4.00;;
8550;SDS011;4313;42.000;21.380;2023-07-30T12:25:30;5.90;;;4.20;;
8550;SDS011;4313;42.000;21.380;2023-07-30T12:27:57;4.90;;;4.10;;
8550;SDS011;4313;42.000;21.380;2023-07-30T12:30:24;4.35;;;3.95;;
8550;SDS011;4313;42.000;21.380;2023-07-30T12:32:53;5.35;;;4.22;;
8550;SDS011;4313;42.000;21.380;2023-07-30T12:35:24;5.38;;;4.60;;
8550;SDS011;4313;42.000;21.380;2023-07-30T12:37:52;4.47;;;4.07;;
8550;SDS011;4313;42.000;21.380;2023-07-30T12:40:19;4.53;;;4.13;;
8550;SDS011;4313;42.000;21.380;2023-07-30T12:42:46;4.22;;;3.83;;
8550;SDS011;4313;42.000;21.380;2023-07-30T12:45:13;5.35;;;4.07;;
8550;SDS011;4313;42.000;21.380;2023-07-30T12:47:40;5.78;;;4.00;;
8550;SDS011;4313;42.000;21.380;2023-07-30T12:50:07;4.50;;;3.97;;
8550;SDS011;4313;42.000;21.380;2023-07-30T12:52:36;5.45;;;4.00;;
8550;SDS011;4313;42.000;21.380;2023-07-30T12:55:04;5.05;;;4.05;;
8550;SDS011;4313;42.000;21.380;2023-07-30T12:57:31;4.75;;;4.07;;
8550;SDS011;4313;42.000;21.380;2023-07-30T12:59:58;5.07;;;4.07;;
8550;SDS011;4313;42.000;21.380;2023-07-30T13:02:25;4.45;;;3.72;;
8550;SDS011;4313;42.000;21.380;2023-07-30T13:04:53;4.25;;;3.80;;
8550;SDS011;4313;42.000;21.380;2023-07-30T13:07:20;5.47;;;4.10;;
8550;SDS011;4313;42.000;21.380;2023-07-30T13:09:58;4.65;;;4.25;;
8550;SDS011;4313;42.000;21.380;2023-07-30T13:12:29;4.20;;;3.80;;
8550;SDS011;4313;42.000;21.380;2023-07-30T13:14:56;5.25;;;4.22;;
8550;SDS011;4313;42.000;21.380;2023-07-30T13:17:23;4.93;;;4.00;;
8550;SDS011;4313;42.000;21.380;2023-07-30T13:19:50;4.57;;;4.18;;
8550;SDS011;4313;42.000;21.380;2023-07-30T13:22:17;4.97;;;4.00;;
8550;SDS011;4313;42.000;21.380;2023-07-30T13:24:44;6.40;;;5.80;;
8550;SDS011;4313;42.000;21.380;2023-07-30T13:27:13;4.38;;;3.80;;
8550;SDS011;4313;42.000;21.380;2023-07-30T13:29:40;5.72;;;4.90;;
8550;SDS011;4313;42.000;21.380;2023-07-30T13:32:07;7.32;;;4.32;;
8550;SDS011;4313;42.000;21.380;2023-07-30T13:34:34;5.95;;;4.10;;
8550;SDS011;4313;42.000;21.380;2023-07-30T13:37:01;5.03;;;4.53;;
8550;SDS011;4313;42.000;21.380;2023-07-30T13:39:29;4.50;;;4.10;;
8550;SDS011;4313;42.000;21.380;2023-07-30T13:41:56;4.38;;;3.97;;
8550;SDS011;4313;42.000;21.380;2023-07-30T13:44:24;4.50;;;4.10;;
8550;SDS011;4313;42.000;21.380;2023-07-30T13:46:51;4.57;;;4.07;;
8550;SDS011;4313;42.000;21.380;2023-07-30T13:49:19;7.80;;;4.10;;
8550;SDS011;4313;42.000;21.380;2023-07-30T13:51:46;4.43;;;4.03;;
8550;SDS011;4313;42.000;21.380;2023-07-30T13:54:13;4.53;;;4.13;;
8550;SDS011;4313;42.000;21.380;2023-07-30T13:56:40;4.35;;;3.95;;
8550;SDS011;4313;42.000;21.380;2023-07-30T13:59:07;5.82;;;3.70;;
8550;SDS011;4313;42.000;21.380;2023-07-30T14:01:35;4.82;;;4.15;;
8550;SDS011;4313;42.000;21.380;2023-07-30T14:04:03;4.60;;;4.20;;
8550;SDS011;4313;42.000;21.380;2023-07-30T14:06:30;4.85;;;4.07;;
8550;SDS011;4313;42.000;21.380;2023-07-30T14:08:57;6.82;;;4.72;;
8550;SDS011;4313;42.000;21.380;2023-07-30T14:11:25;4.72;;;4.30;;
8550;SDS011;4313;42.000;21.380;2023-07-30T14:13:53;5.97;;;4.03;;
8550;SDS011;4313;42.000;21.380;2023-07-30T14:16:21;6.07;;;5.47;;
8550;SDS011;4313;42.000;21.380;2023-07-30T14:18:49;10.95;;;8.68;;
8550;SDS011;4313;42.000;21.380;2023-07-30T14:21:16;5.13;;;4.53;;
8550;SDS011;4313;42.000;21.380;2023-07-30T14:23:43;4.80;;;4.25;;
8550;SDS011;4313;42.000;21.380;2023-07-30T14:26:12;5.05;;;4.00;;
8550;SDS011;4313;42.000;21.380;2023-07-30T14:28:39;5.43;;;4.43;;
8550;SDS011;4313;42.000;21.380;2023-07-30T14:31:06;5.50;;;3.90;;
8550;SDS011;4313;42.000;21.380;2023-07-30T14:33:34;4.68;;;4.28;;
8550;SDS011;4313;42.000;21.380;2023-07-30T14:36:03;4.40;;;3.97;;
8550;SDS011;4313;42.000;21.380;2023-07-30T14:38:30;5.38;;;4.10;;
8550;SDS011;4313;42.000;21.380;2023-07-30T14:40:59;6.25;;;4.30;;
8550;SDS011;4313;42.000;21.380;2023-07-30T14:43:27;5.47;;;4.28;;
8550;SDS011;4313;42.000;21.380;2023-07-30T14:45:54;4.95;;;3.78;;
8550;SDS011;4313;42.000;21.380;2023-07-30T14:48:22;7.05;;;4.38;;
8550;SDS011;4313;42.000;21.380;2023-07-30T14:50:49;4.63;;;3.63;;
8550;SDS011;4313;42.000;21.380;2023-07-30T14:53:17;4.10;;;3.70;;
8550;SDS011;4313;42.000;21.380;2023-07-30T14:55:44;4.22;;;3.80;;
8550;SDS011;4313;42.000;21.380;2023-07-30T14:58:13;5.50;;;3.80;;
8550;SDS011;4313;42.000;21.380;2023-07-30T15:00:44;4.75;;;4.18;;
8550;SDS011;4313;42.000;21.380;2023-07-30T15:03:11;4.80;;;4.32;;
8550;SDS011;4313;42.000;21.380;2023-07-30T15:05:38;5.50;;;4.05;;
8550;SDS011;4313;42.000;21.380;2023-07-30T15:08:05;5.40;;;3.67;;